sensor_id;sensor_type;location;lat;lon;timestamp;P1;durP1;ratioP1;P2;durP2;ratioP2
30235;SDS011;17048;53.092;8.746;2023-12-04T00:00:08;15.43;;;6.82;;
30235;SDS011;17048;53.092;8.746;2023-12-04T00:02:39;30.23;;;11.10;;
30235;SDS011;17048;53.092;8.746;2023-12-04T00:05:25;32.25;;;10.95;;
30235;SDS011;17048;53.092;8.746;2023-12-04T00:08:08;20.88;;;7.35;;
30235;SDS011;17048;53.092;8.746;2023-12-04T00:17:33;22.85;;;9.02;;
30235;SDS011;17048;53.092;8.746;2023-12-04T00:20:19;32.15;;;13.05;;
30235;SDS011;17048;53.092;8.746;2023-12-04T00:22:48;11.93;;;5.60;;
30235;SDS011;17048;53.092;8.746;2023-12-04T00:25:24;28.75;;;9.35;;
30235;SDS011;17048;53.092;8.746;2023-12-04T00:28:00;25.73;;;11.05;;
30235;SDS011;17048;53.092;8.746;2023-12-04T00:30:29;25.95;;;11.02;;
30235;SDS011;17048;53.092;8.746;2023-12-04T00:33:06;21.00;;;10.27;;
30235;SDS011;17048;53.092;8.746;2023-12-04T00:35:35;26.92;;;10.63;;
30235;SDS011;17048;53.092;8.746;2023-12-04T00:38:16;14.27;;;6.72;;
30235;SDS011;17048;53.092;8.746;2023-12-04T00:40:57;24.33;;;10.77;;
30235;SDS011;17048;53.092;8.746;2023-12-04T00:43:42;28.80;;;11.73;;
30235;SDS011;17048;53.092;8.746;2023-12-04T00:46:11;14.55;;;6.32;;
30235;SDS011;17048;53.092;8.746;2023-12-04T00:48:53;21.00;;;9.60;;
30235;SDS011;17048;53.092;8.746;2023-12-04T00:51:38;25.05;;;9.10;;
30235;SDS011;17048;53.092;8.746;2023-12-04T00:54:13;26.40;;;10.35;;
30235;SDS011;17048;53.092;8.746;2023-12-04T00:57:05;18.50;;;8.23;;
30235;SDS011;17048;53.092;8.746;2023-12-04T00:59:35;21.30;;;7.75;;
30235;SDS011;17048;53.092;8.746;2023-12-04T01:02:05;22.13;;;10.20;;
30235;SDS011;17048;53.092;8.746;2023-12-04T01:04:51;24.10;;;9.55;;
30235;SDS011;17048;53.092;8.746;2023-12-04T01:07:35;21.02;;;9.70;;
30235;SDS011;17048;53.092;8.746;2023-12-04T01:10:22;17.98;;;9.07;;
30235;SDS011;17048;53.092;8.746;2023-12-04T01:13:01;23.20;;;9.07;;
30235;SDS011;17048;53.092;8.746;2023-12-04T01:15:49;23.88;;;12.00;;
30235;SDS011;17048;53.092;8.746;2023-12-04T01:18:26;25.15;;;9.18;;
30235;SDS011;17048;53.092;8.746;2023-12-04T01:21:01;22.38;;;8.95;;
30235;SDS011;17048;53.092;8.746;2023-12-04T01:23:46;15.90;;;7.85;;
30235;SDS011;17048;53.092;8.746;2023-12-04T01:26:38;8.87;;;5.47;;
30235;SDS011;17048;53.092;8.746;2023-12-04T01:29:19;24.42;;;10.48;;
30235;SDS011;17048;53.092;8.746;2023-12-04T01:31:50;26.48;;;8.52;;
30235;SDS011;17048;53.092;8.746;2023-12-04T01:34:34;24.70;;;9.68;;
30235;SDS011;17048;53.092;8.746;2023-12-04T01:37:05;22.90;;;10.93;;
30235;SDS011;17048;53.092;8.746;2023-12-04T01:39:34;27.20;;;10.88;;
30235;SDS011;17048;53.092;8.746;2023-12-04T01:42:04;21.70;;;6.97;;
30235;SDS011;17048;53.092;8.746;2023-12-04T01:44:36;21.67;;;10.20;;
30235;SDS011;17048;53.092;8.746;2023-12-04T01:47:06;21.35;;;9.18;;
30235;SDS011;17048;53.092;8.746;2023-12-04T01:49:55;19.92;;;8.05;;
30235;SDS011;17048;53.092;8.746;2023-12-04T01:52:26;22.02;;;8.40;;
30235;SDS011;17048;53.092;8.746;2023-12-04T01:55:01;19.05;;;8.70;;
30235;SDS011;17048;53.092;8.746;2023-12-04T01:57:45;19.67;;;6.82;;
30235;SDS011;17048;53.092;8.746;2023-12-04T02:00:26;25.27;;;10.02;;
30235;SDS011;17048;53.092;8.746;2023-12-04T02:02:55;15.00;;;8.02;;
30235;SDS011;17048;53.092;8.746;2023-12-04T02:05:37;27.20;;;10.68;;
30235;SDS011;17048;53.092;8.746;2023-12-04T02:08:17;18.30;;;7.13;;
30235;SDS011;17048;53.092;8.746;2023-12-04T02:11:00;19.27;;;8.60;;
30235;SDS011;17048;53.092;8.746;2023-12-04T02:13:32;18.85;;;8.77;;
30235;SDS011;17048;53.092;8.746;2023-12-04T02:16:05;18.88;;;7.07;;
30235;SDS011;17048;53.092;8.746;2023-12-04T02:18:49;21.80;;;8.85;;
30235;SDS011;17048;53.092;8.746;2023-12-04T02:21:31;30.15;;;10.43;;
30235;SDS011;17048;53.092;8.746;2023-12-04T02:23:59;21.15;;;7.65;;
30235;SDS011;17048;53.092;8.746;2023-12-04T02:26:39;22.63;;;10.48;;
30235;SDS011;17048;53.092;8.746;2023-12-04T02:29:14;23.52;;;8.07;;
30235;SDS011;17048;53.092;8.746;2023-12-04T02:31:55;15.90;;;5.03;;
30235;SDS011;17048;53.092;8.746;2023-12-04T02:34:26;28.48;;;11.60;;
30235;SDS011;17048;53.092;8.746;2023-12-04T02:37:08;20.63;;;8.18;;
30235;SDS011;17048;53.092;8.746;2023-12-04T02:39:39;13.65;;;7.55;;
30235;SDS011;17048;53.092;8.746;2023-12-04T02:42:09;19.48;;;8.07;;
30235;SDS011;17048;53.092;8.746;2023-12-04T02:44:50;14.77;;;7.85;;
30235;SDS011;17048;53.092;8.746;2023-12-04T02:47:19;17.10;;;8.90;;
30235;SDS011;17048;53.092;8.746;2023-12-04T02:49:48;23.50;;;9.85;;
30235;SDS011;17048;53.092;8.746;2023-12-04T02:52:33;20.80;;;9.80;;
30235;SDS011;17048;53.092;8.746;2023-12-04T02:55:16;14.00;;;8.18;;
30235;SDS011;17048;53.092;8.746;2023-12-04T02:57:56;18.50;;;8.18;;
30235;SDS011;17048;53.092;8.746;2023-12-04T03:00:27;11.45;;;6.85;;
30235;SDS011;17048;53.092;8.746;2023-12-04T03:03:01;17.83;;;7.63;;
30235;SDS011;17048;53.092;8.746;2023-12-04T03:05:42;22.83;;;7.40;;
30235;SDS011;17048;53.092;8.746;2023-12-04T03:08:25;18.15;;;7.35;;
30235;SDS011;17048;53.092;8.746;2023-12-04T03:10:56;13.70;;;7.20;;
30235;SDS011;17048;53.092;8.746;2023-12-04T03:13:27;12.90;;;6.35;;
30235;SDS011;17048;53.092;8.746;2023-12-04T03:16:17;20.65;;;7.60;;
30235;SDS011;17048;53.092;8.746;2023-12-04T03:19:01;21.50;;;8.00;;
30235;SDS011;17048;53.092;8.746;2023-12-04T03:21:31;16.90;;;7.00;;
30235;SDS011;17048;53.092;8.746;2023-12-04T03:24:00;9.55;;;6.30;;
30235;SDS011;17048;53.092;8.746;2023-12-04T03:26:43;20.30;;;9.90;;
30235;SDS011;17048;53.092;8.746;2023-12-04T03:29:16;23.58;;;9.18;;
30235;SDS011;17048;53.092;8.746;2023-12-04T03:31:44;16.92;;;6.95;;
30235;SDS011;17048;53.092;8.746;2023-12-04T03:34:19;22.02;;;8.70;;
30235;SDS011;17048;53.092;8.746;2023-12-04T03:36:56;16.25;;;7.72;;
30235;SDS011;17048;53.092;8.746;2023-12-04T03:39:30;12.95;;;5.72;;
30235;SDS011;17048;53.092;8.746;2023-12-04T03:42:05;21.58;;;9.65;;
30235;SDS011;17048;53.092;8.746;2023-12-04T03:44:37;22.27;;;8.57;;
30235;SDS011;17048;53.092;8.746;2023-12-04T03:47:19;21.73;;;8.35;;
30235;SDS011;17048;53.092;8.746;2023-12-04T03:49:51;21.00;;;8.23;;
30235;SDS011;17048;53.092;8.746;2023-12-04T03:52:23;19.15;;;7.03;;
30235;SDS011;17048;53.092;8.746;2023-12-04T03:54:53;19.75;;;8.73;;
30235;SDS011;17048;53.092;8.746;2023-12-04T03:57:24;15.25;;;7.38;;
30235;SDS011;17048;53.092;8.746;2023-12-04T03:59:52;16.83;;;7.70;;
30235;SDS011;17048;53.092;8.746;2023-12-04T04:02:25;21.52;;;8.25;;
30235;SDS011;17048;53.092;8.746;2023-12-04T04:05:01;24.02;;;8.23;;
30235;SDS011;17048;53.092;8.746;2023-12-04T04:07:37;11.32;;;6.18;;
30235;SDS011;17048;53.092;8.746;2023-12-04T04:10:08;9.55;;;4.88;;
30235;SDS011;17048;53.092;8.746;2023-12-04T04:12:38;19.02;;;7.13;;
30235;SDS011;17048;53.092;8.746;2023-12-04T04:15:09;22.77;;;9.60;;
30235;SDS011;17048;53.092;8.746;2023-12-04T04:17:39;21.85;;;8.50;;
30235;SDS011;17048;53.092;8.746;2023-12-04T04:20:22;24.23;;;8.23;;
30235;SDS011;17048;53.092;8.746;2023-12-04T04:22:53;18.15;;;7.00;;
30235;SDS011;17048;53.092;8.746;2023-12-04T04:25:21;11.90;;;6.25;;
30235;SDS011;17048;53.092;8.746;2023-12-04T04:28:00;13.07;;;7.20;;
30235;SDS011;17048;53.092;8.746;2023-12-04T04:30:36;14.60;;;6.72;;
30235;SDS011;17048;53.092;8.746;2023-12-04T04:33:20;20.70;;;7.65;;
30235;SDS011;17048;53.092;8.746;2023-12-04T04:36:02;13.18;;;6.05;;
30235;SDS011;17048;53.092;8.746;2023-12-04T04:38:32;19.50;;;6.22;;
30235;SDS011;17048;53.092;8.746;2023-12-04T04:41:01;14.88;;;5.53;;
30235;SDS011;17048;53.092;8.746;2023-12-04T04:43:29;12.38;;;6.68;;
30235;SDS011;17048;53.092;8.746;2023-12-04T04:46:01;13.68;;;7.35;;
30235;SDS011;17048;53.092;8.746;2023-12-04T04:48:30;18.52;;;8.40;;
30235;SDS011;17048;53.092;8.746;2023-12-04T04:51:02;9.25;;;5.20;;
30235;SDS011;17048;53.092;8.746;2023-12-04T04:53:42;17.33;;;6.55;;
30235;SDS011;17048;53.092;8.746;2023-12-04T04:56:19;12.77;;;5.80;;
30235;SDS011;17048;53.092;8.746;2023-12-04T04:58:48;12.45;;;5.13;;
30235;SDS011;17048;53.092;8.746;2023-12-04T05:01:19;21.48;;;7.00;;
30235;SDS011;17048;53.092;8.746;2023-12-04T05:03:51;18.17;;;5.70;;
30235;SDS011;17048;53.092;8.746;2023-12-04T05:06:26;19.73;;;8.23;;
30235;SDS011;17048;53.092;8.746;2023-12-04T05:09:10;17.27;;;7.43;;
30235;SDS011;17048;53.092;8.746;2023-12-04T05:11:42;16.98;;;7.22;;
30235;SDS011;17048;53.092;8.746;2023-12-04T05:14:15;11.82;;;5.05;;
30235;SDS011;17048;53.092;8.746;2023-12-04T05:16:48;17.35;;;7.72;;
30235;SDS011;17048;53.092;8.746;2023-12-04T05:19:30;12.88;;;5.70;;
30235;SDS011;17048;53.092;8.746;2023-12-04T05:22:13;22.48;;;8.65;;
30235;SDS011;17048;53.092;8.746;2023-12-04T05:24:54;15.65;;;6.97;;
30235;SDS011;17048;53.092;8.746;2023-12-04T05:27:44;22.33;;;7.13;;
30235;SDS011;17048;53.092;8.746;2023-12-04T05:30:16;17.25;;;7.22;;
30235;SDS011;17048;53.092;8.746;2023-12-04T05:49:01;10.00;;;4.95;;
30235;SDS011;17048;53.092;8.746;2023-12-04T05:51:31;6.13;;;3.50;;
30235;SDS011;17048;53.092;8.746;2023-12-04T05:54:06;23.52;;;7.82;;
30235;SDS011;17048;53.092;8.746;2023-12-04T05:56:47;14.48;;;6.70;;
30235;SDS011;17048;53.092;8.746;2023-12-04T05:59:27;9.40;;;3.97;;
30235;SDS011;17048;53.092;8.746;2023-12-04T06:02:00;16.45;;;6.65;;
30235;SDS011;17048;53.092;8.746;2023-12-04T06:04:29;13.45;;;5.18;;
30235;SDS011;17048;53.092;8.746;2023-12-04T06:07:01;4.88;;;3.63;;
30235;SDS011;17048;53.092;8.746;2023-12-04T06:09:35;16.02;;;7.03;;
30235;SDS011;17048;53.092;8.746;2023-12-04T06:12:08;22.20;;;8.07;;
30235;SDS011;17048;53.092;8.746;2023-12-04T06:14:41;19.90;;;5.95;;
30235;SDS011;17048;53.092;8.746;2023-12-04T06:17:16;14.07;;;6.80;;
30235;SDS011;17048;53.092;8.746;2023-12-04T06:20:01;11.90;;;5.55;;
30235;SDS011;17048;53.092;8.746;2023-12-04T06:22:42;17.48;;;7.25;;
30235;SDS011;17048;53.092;8.746;2023-12-04T06:25:24;9.63;;;3.83;;
30235;SDS011;17048;53.092;8.746;2023-12-04T06:28:07;18.65;;;7.75;;
30235;SDS011;17048;53.092;8.746;2023-12-04T06:30:40;15.93;;;7.22;;
30235;SDS011;17048;53.092;8.746;2023-12-04T06:33:10;10.82;;;5.25;;
30235;SDS011;17048;53.092;8.746;2023-12-04T06:35:41;18.48;;;7.07;;
30235;SDS011;17048;53.092;8.746;2023-12-04T06:38:23;18.70;;;8.43;;
30235;SDS011;17048;53.092;8.746;2023-12-04T06:40:55;15.43;;;6.05;;
30235;SDS011;17048;53.092;8.746;2023-12-04T06:43:36;20.65;;;8.43;;
30235;SDS011;17048;53.092;8.746;2023-12-04T06:46:16;24.48;;;8.73;;
30235;SDS011;17048;53.092;8.746;2023-12-04T06:48:58;18.65;;;7.70;;
30235;SDS011;17048;53.092;8.746;2023-12-04T06:51:35;22.98;;;8.77;;
30235;SDS011;17048;53.092;8.746;2023-12-04T06:54:18;21.95;;;7.28;;
30235;SDS011;17048;53.092;8.746;2023-12-04T06:57:00;17.35;;;6.70;;
30235;SDS011;17048;53.092;8.746;2023-12-04T06:59:43;19.00;;;8.65;;
30235;SDS011;17048;53.092;8.746;2023-12-04T07:02:15;9.45;;;4.70;;
30235;SDS011;17048;53.092;8.746;2023-12-04T07:04:51;15.02;;;6.25;;
30235;SDS011;17048;53.092;8.746;2023-12-04T07:07:32;5.85;;;2.92;;
30235;SDS011;17048;53.092;8.746;2023-12-04T07:10:13;17.17;;;5.53;;
30235;SDS011;17048;53.092;8.746;2023-12-04T07:12:49;18.60;;;8.38;;
30235;SDS011;17048;53.092;8.746;2023-12-04T07:15:27;18.58;;;7.07;;
30235;SDS011;17048;53.092;8.746;2023-12-04T07:18:08;17.10;;;6.20;;
30235;SDS011;17048;53.092;8.746;2023-12-04T07:20:49;22.55;;;7.18;;
30235;SDS011;17048;53.092;8.746;2023-12-04T07:23:24;16.17;;;5.85;;
30235;SDS011;17048;53.092;8.746;2023-12-04T07:26:05;11.20;;;6.30;;
30235;SDS011;17048;53.092;8.746;2023-12-04T07:28:46;9.18;;;4.80;;
30235;SDS011;17048;53.092;8.746;2023-12-04T07:31:21;13.95;;;5.90;;
30235;SDS011;17048;53.092;8.746;2023-12-04T07:34:02;13.32;;;7.30;;
30235;SDS011;17048;53.092;8.746;2023-12-04T07:36:43;11.00;;;5.75;;
30235;SDS011;17048;53.092;8.746;2023-12-04T07:39:24;14.23;;;4.57;;
30235;SDS011;17048;53.092;8.746;2023-12-04T07:42:08;10.85;;;4.47;;
30235;SDS011;17048;53.092;8.746;2023-12-04T07:44:43;22.05;;;6.35;;
30235;SDS011;17048;53.092;8.746;2023-12-04T07:47:24;24.45;;;8.80;;
30235;SDS011;17048;53.092;8.746;2023-12-04T07:49:54;13.43;;;4.90;;
30235;SDS011;17048;53.092;8.746;2023-12-04T07:52:35;15.68;;;8.23;;
30235;SDS011;17048;53.092;8.746;2023-12-04T07:55:15;15.88;;;4.65;;
30235;SDS011;17048;53.092;8.746;2023-12-04T07:57:57;20.52;;;8.98;;
30235;SDS011;17048;53.092;8.746;2023-12-04T08:00:39;19.13;;;7.97;;
30235;SDS011;17048;53.092;8.746;2023-12-04T08:03:20;21.02;;;9.93;;
30235;SDS011;17048;53.092;8.746;2023-12-04T08:06:03;22.92;;;8.15;;
30235;SDS011;17048;53.092;8.746;2023-12-04T08:08:42;16.63;;;8.82;;
30235;SDS011;17048;53.092;8.746;2023-12-04T08:14:06;16.40;;;7.00;;
30235;SDS011;17048;53.092;8.746;2023-12-04T08:16:38;19.88;;;6.68;;
30235;SDS011;17048;53.092;8.746;2023-12-04T08:19:13;18.63;;;8.40;;
30235;SDS011;17048;53.092;8.746;2023-12-04T08:21:50;22.10;;;9.32;;
30235;SDS011;17048;53.092;8.746;2023-12-04T08:24:21;11.85;;;6.82;;
30235;SDS011;17048;53.092;8.746;2023-12-04T08:26:49;13.15;;;6.43;;
30235;SDS011;17048;53.092;8.746;2023-12-04T08:29:19;20.10;;;7.25;;
30235;SDS011;17048;53.092;8.746;2023-12-04T08:31:48;17.10;;;6.78;;
30235;SDS011;17048;53.092;8.746;2023-12-04T08:34:30;16.85;;;7.35;;
30235;SDS011;17048;53.092;8.746;2023-12-04T08:37:04;15.32;;;7.30;;
30235;SDS011;17048;53.092;8.746;2023-12-04T08:39:34;20.75;;;8.25;;
30235;SDS011;17048;53.092;8.746;2023-12-04T08:42:08;28.15;;;7.75;;
30235;SDS011;17048;53.092;8.746;2023-12-04T08:44:46;19.13;;;8.25;;
30235;SDS011;17048;53.092;8.746;2023-12-04T08:47:19;17.83;;;7.15;;
30235;SDS011;17048;53.092;8.746;2023-12-04T08:49:59;16.20;;;7.60;;
30235;SDS011;17048;53.092;8.746;2023-12-04T08:52:40;14.10;;;6.78;;
30235;SDS011;17048;53.092;8.746;2023-12-04T08:55:18;17.10;;;8.07;;
30235;SDS011;17048;53.092;8.746;2023-12-04T20:09:11;7.85;;;4.80;;
30235;SDS011;17048;53.092;8.746;2023-12-04T20:12:17;6.28;;;2.33;;
30235;SDS011;17048;53.092;8.746;2023-12-04T20:19:28;7.47;;;3.13;;
30235;SDS011;17048;53.092;8.746;2023-12-04T20:22:20;5.65;;;2.63;;
30235;SDS011;17048;53.092;8.746;2023-12-04T20:25:36;5.30;;;3.70;;
30235;SDS011;17048;53.092;8.746;2023-12-04T20:28:43;9.43;;;3.83;;
30235;SDS011;17048;53.092;8.746;2023-12-04T20:32:02;8.40;;;4.60;;
30235;SDS011;17048;53.092;8.746;2023-12-04T20:35:20;9.80;;;4.93;;
30235;SDS011;17048;53.092;8.746;2023-12-04T20:38:27;7.13;;;3.90;;
30235;SDS011;17048;53.092;8.746;2023-12-04T20:44:47;8.48;;;5.00;;
30235;SDS011;17048;53.092;8.746;2023-12-04T20:47:58;6.25;;;3.88;;
30235;SDS011;17048;53.092;8.746;2023-12-04T20:51:05;4.97;;;3.20;;
30235;SDS011;17048;53.092;8.746;2023-12-04T20:57:19;9.82;;;4.65;;
30235;SDS011;17048;53.092;8.746;2023-12-04T21:00:26;7.78;;;4.72;;
30235;SDS011;17048;53.092;8.746;2023-12-04T21:03:37;8.43;;;3.38;;
30235;SDS011;17048;53.092;8.746;2023-12-04T21:07:21;9.25;;;4.30;;
30235;SDS011;17048;53.092;8.746;2023-12-04T21:10:05;9.48;;;4.00;;
30235;SDS011;17048;53.092;8.746;2023-12-04T21:12:50;13.10;;;4.70;;
30235;SDS011;17048;53.092;8.746;2023-12-04T21:15:23;6.30;;;3.70;;
30235;SDS011;17048;53.092;8.746;2023-12-04T21:18:10;7.05;;;3.67;;
30235;SDS011;17048;53.092;8.746;2023-12-04T21:20:51;5.30;;;3.60;;
30235;SDS011;17048;53.092;8.746;2023-12-04T21:23:24;10.43;;;4.60;;
30235;SDS011;17048;53.092;8.746;2023-12-04T21:26:14;5.07;;;3.10;;
30235;SDS011;17048;53.092;8.746;2023-12-04T21:28:52;9.77;;;3.65;;
30235;SDS011;17048;53.092;8.746;2023-12-04T21:31:33;12.85;;;4.70;;
30235;SDS011;17048;53.092;8.746;2023-12-04T21:34:02;5.57;;;3.45;;
30235;SDS011;17048;53.092;8.746;2023-12-04T21:36:44;12.00;;;5.43;;
30235;SDS011;17048;53.092;8.746;2023-12-04T21:39:19;13.32;;;3.95;;
30235;SDS011;17048;53.092;8.746;2023-12-04T21:42:03;14.07;;;3.65;;
30235;SDS011;17048;53.092;8.746;2023-12-04T21:44:32;6.22;;;3.22;;
30235;SDS011;17048;53.092;8.746;2023-12-04T21:47:06;5.95;;;2.67;;
30235;SDS011;17048;53.092;8.746;2023-12-04T21:49:46;6.13;;;3.38;;
30235;SDS011;17048;53.092;8.746;2023-12-04T21:52:17;7.55;;;3.67;;
30235;SDS011;17048;53.092;8.746;2023-12-04T21:54:51;6.47;;;3.15;;
30235;SDS011;17048;53.092;8.746;2023-12-04T21:57:38;9.70;;;4.07;;
30235;SDS011;17048;53.092;8.746;2023-12-04T22:00:19;5.45;;;3.20;;
30235;SDS011;17048;53.092;8.746;2023-12-04T22:02:55;6.10;;;3.38;;
30235;SDS011;17048;53.092;8.746;2023-12-04T22:05:25;5.25;;;3.17;;
30235;SDS011;17048;53.092;8.746;2023-12-04T22:08:07;8.05;;;3.90;;
30235;SDS011;17048;53.092;8.746;2023-12-04T22:10:49;5.10;;;2.67;;
30235;SDS011;17048;53.092;8.746;2023-12-04T22:13:34;10.65;;;4.95;;
30235;SDS011;17048;53.092;8.746;2023-12-04T22:16:18;7.13;;;3.40;;
30235;SDS011;17048;53.092;8.746;2023-12-04T22:18:54;9.35;;;4.68;;
30235;SDS011;17048;53.092;8.746;2023-12-04T22:21:26;2.25;;;1.40;;
30235;SDS011;17048;53.092;8.746;2023-12-04T22:24:02;8.82;;;4.20;;
30235;SDS011;17048;53.092;8.746;2023-12-04T22:26:36;10.95;;;4.07;;
30235;SDS011;17048;53.092;8.746;2023-12-04T22:29:09;11.90;;;4.93;;
30235;SDS011;17048;53.092;8.746;2023-12-04T22:31:58;10.00;;;4.63;;
30235;SDS011;17048;53.092;8.746;2023-12-04T22:34:40;3.95;;;2.50;;
30235;SDS011;17048;53.092;8.746;2023-12-04T22:37:21;9.55;;;3.75;;
30235;SDS011;17048;53.092;8.746;2023-12-04T22:39:55;6.22;;;3.50;;
30235;SDS011;17048;53.092;8.746;2023-12-04T22:42:27;8.10;;;3.80;;
30235;SDS011;17048;53.092;8.746;2023-12-04T22:45:26;8.25;;;4.35;;
30235;SDS011;17048;53.092;8.746;2023-12-04T22:48:05;6.00;;;2.95;;
30235;SDS011;17048;53.092;8.746;2023-12-04T22:50:38;11.27;;;4.82;;
30235;SDS011;17048;53.092;8.746;2023-12-04T22:53:06;12.50;;;4.18;;
30235;SDS011;17048;53.092;8.746;2023-12-04T22:55:43;7.85;;;4.65;;
30235;SDS011;17048;53.092;8.746;2023-12-04T22:58:24;10.25;;;4.95;;
30235;SDS011;17048;53.092;8.746;2023-12-04T23:00:54;8.02;;;3.92;;
30235;SDS011;17048;53.092;8.746;2023-12-04T23:03:26;6.18;;;3.88;;
30235;SDS011;17048;53.092;8.746;2023-12-04T23:06:01;11.32;;;4.25;;
30235;SDS011;17048;53.092;8.746;2023-12-04T23:08:45;14.98;;;5.10;;
30235;SDS011;17048;53.092;8.746;2023-12-04T23:11:15;7.18;;;4.22;;
30235;SDS011;17048;53.092;8.746;2023-12-04T23:13:55;14.48;;;5.15;;
30235;SDS011;17048;53.092;8.746;2023-12-04T23:16:40;15.95;;;4.35;;
30235;SDS011;17048;53.092;8.746;2023-12-04T23:19:17;6.90;;;3.20;;
30235;SDS011;17048;53.092;8.746;2023-12-04T23:21:50;11.55;;;5.88;;
30235;SDS011;17048;53.092;8.746;2023-12-04T23:24:30;6.40;;;3.33;;
30235;SDS011;17048;53.092;8.746;2023-12-04T23:27:11;8.05;;;3.08;;
30235;SDS011;17048;53.092;8.746;2023-12-04T23:29:55;13.60;;;5.43;;
30235;SDS011;17048;53.092;8.746;2023-12-04T23:32:26;16.55;;;6.28;;
30235;SDS011;17048;53.092;8.746;2023-12-04T23:35:07;8.10;;;3.80;;
30235;SDS011;17048;53.092;8.746;2023-12-04T23:37:49;8.65;;;4.82;;
30235;SDS011;17048;53.092;8.746;2023-12-04T23:40:31;13.60;;;5.78;;
30235;SDS011;17048;53.092;8.746;2023-12-04T23:43:10;9.43;;;3.03;;
30235;SDS011;17048;53.092;8.746;2023-12-04T23:45:39;10.65;;;5.05;;
30235;SDS011;17048;53.092;8.746;2023-12-04T23:48:21;8.77;;;5.07;;
30235;SDS011;17048;53.092;8.746;2023-12-04T23:50:51;13.80;;;6.88;;
30235;SDS011;17048;53.092;8.746;2023-12-04T23:53:22;5.65;;;2.25;;
30235;SDS011;17048;53.092;8.746;2023-12-04T23:55:52;7.30;;;4.05;;
30235;SDS011;17048;53.092;8.746;2023-12-04T23:58:22;7.85;;;3.78;;
